sensor_id;sensor_type;location;lat;lon;timestamp;pressure;altitude;pressure_sealevel;temperature;humidity
71504;BME280;59323;50.874;7.028;2023-08-30T00:02:17;100510.88;;;15.03;97.98
71504;BME280;59323;50.874;7.028;2023-08-30T00:04:42;100512.47;;;15.00;98.65
71504;BME280;59323;50.874;7.028;2023-08-30T00:07:08;100520.28;;;14.98;99.36
71504;BME280;59323;50.874;7.028;2023-08-30T00:09:35;100517.94;;;14.97;99.07
71504;BME280;59323;50.874;7.028;2023-08-30T00:12:02;100518.31;;;14.95;99.03
71504;BME280;59323;50.874;7.028;2023-08-30T00:14:27;100510.91;;;14.96;99.14
71504;BME280;59323;50.874;7.028;2023-08-30T00:16:52;100512.84;;;14.95;99.02
71504;BME280;59323;50.874;7.028;2023-08-30T00:19:18;100511.28;;;14.94;99.29
71504;BME280;59323;50.874;7.028;2023-08-30T00:21:43;100509.34;;;14.91;99.30
71504;BME280;59323;50.874;7.028;2023-08-30T00:24:09;100516.00;;;14.90;99.79
71504;BME280;59323;50.874;7.028;2023-08-30T00:26:35;100507.41;;;14.88;99.53
71504;BME280;59323;50.874;7.028;2023-08-30T00:29:00;100508.59;;;14.87;99.68
71504;BME280;59323;50.874;7.028;2023-08-30T00:31:25;100505.44;;;14.88;99.80
71504;BME280;59323;50.874;7.028;2023-08-30T00:33:51;100503.13;;;14.87;99.74
71504;BME280;59323;50.874;7.028;2023-08-30T00:36:16;100508.19;;;14.88;100.00
71504;BME280;59323;50.874;7.028;2023-08-30T00:38:43;100504.69;;;14.84;100.00
71504;BME280;59323;50.874;7.028;2023-08-30T00:41:09;100508.22;;;14.85;100.00
71504;BME280;59323;50.874;7.028;2023-08-30T00:43:34;100501.56;;;14.86;100.00
71504;BME280;59323;50.874;7.028;2023-08-30T00:46:00;100503.91;;;14.84;100.00
71504;BME280;59323;50.874;7.028;2023-08-30T00:48:25;100503.13;;;14.87;100.00
71504;BME280;59323;50.874;7.028;2023-08-30T00:50:51;100501.94;;;14.88;100.00
71504;BME280;59323;50.874;7.028;2023-08-30T00:53:16;100495.69;;;14.87;100.00
71504;BME280;59323;50.874;7.028;2023-08-30T00:55:42;100492.94;;;14.91;100.00
71504;BME280;59323;50.874;7.028;2023-08-30T00:58:09;100483.56;;;14.88;100.00
71504;BME280;59323;50.874;7.028;2023-08-30T01:00:35;100482.00;;;14.91;100.00
71504;BME280;59323;50.874;7.028;2023-08-30T01:03:01;100480.81;;;14.92;100.00
71504;BME280;59323;50.874;7.028;2023-08-30T01:05:26;100474.56;;;14.91;100.00
71504;BME280;59323;50.874;7.028;2023-08-30T01:07:53;100475.72;;;14.94;100.00
71504;BME280;59323;50.874;7.028;2023-08-30T01:10:22;100477.28;;;14.95;100.00
71504;BME280;59323;50.874;7.028;2023-08-30T01:12:53;100467.91;;;14.96;100.00
71504;BME280;59323;50.874;7.028;2023-08-30T01:15:23;100462.03;;;14.94;100.00
71504;BME280;59323;50.874;7.028;2023-08-30T01:17:52;100460.84;;;14.95;100.00
71504;BME280;59323;50.874;7.028;2023-08-30T01:20:18;100458.94;;;14.96;100.00
71504;BME280;59323;50.874;7.028;2023-08-30T01:25:55;100448.34;;;14.98;100.00
71504;BME280;59323;50.874;7.028;2023-08-30T01:28:20;100452.66;;;14.99;100.00
71504;BME280;59323;50.874;7.028;2023-08-30T01:30:46;100459.28;;;15.01;100.00
71504;BME280;59323;50.874;7.028;2023-08-30T01:33:14;100447.94;;;15.03;100.00
71504;BME280;59323;50.874;7.028;2023-08-30T01:35:41;100440.91;;;15.02;100.00
71504;BME280;59323;50.874;7.028;2023-08-30T01:38:07;100442.47;;;15.03;100.00
71504;BME280;59323;50.874;7.028;2023-08-30T01:40:36;100440.50;;;15.03;100.00
71504;BME280;59323;50.874;7.028;2023-08-30T01:43:03;100446.75;;;15.04;100.00
71504;BME280;59323;50.874;7.028;2023-08-30T01:45:35;100435.41;;;15.05;100.00
71504;BME280;59323;50.874;7.028;2023-08-30T01:48:01;100439.31;;;15.04;100.00
71504;BME280;59323;50.874;7.028;2023-08-30T01:50:28;100435.41;;;15.05;100.00
71504;BME280;59323;50.874;7.028;2023-08-30T01:52:54;100435.81;;;15.04;100.00
71504;BME280;59323;50.874;7.028;2023-08-30T01:55:22;100436.63;;;15.01;100.00
71504;BME280;59323;50.874;7.028;2023-08-30T01:57:48;100430.38;;;14.97;100.00
71504;BME280;59323;50.874;7.028;2023-08-30T02:00:14;100431.94;;;14.94;100.00
71504;BME280;59323;50.874;7.028;2023-08-30T02:02:40;100435.84;;;14.93;100.00
71504;BME280;59323;50.874;7.028;2023-08-30T02:05:06;100436.63;;;14.94;100.00
71504;BME280;59323;50.874;7.028;2023-08-30T02:07:45;100437.41;;;14.94;100.00
71504;BME280;59323;50.874;7.028;2023-08-30T02:10:20;100433.13;;;14.93;100.00
71504;BME280;59323;50.874;7.028;2023-08-30T02:12:48;100443.66;;;14.95;100.00
71504;BME280;59323;50.874;7.028;2023-08-30T02:15:15;100439.78;;;14.96;100.00
71504;BME280;59323;50.874;7.028;2023-08-30T02:17:42;100439.78;;;14.92;100.00
71504;BME280;59323;50.874;7.028;2023-08-30T02:20:09;100441.34;;;14.89;100.00
71504;BME280;59323;50.874;7.028;2023-08-30T02:22:35;100431.19;;;14.90;100.00
71504;BME280;59323;50.874;7.028;2023-08-30T02:25:00;100440.56;;;14.89;100.00
71504;BME280;59323;50.874;7.028;2023-08-30T02:27:32;100435.09;;;14.89;100.00
71504;BME280;59323;50.874;7.028;2023-08-30T02:29:58;100439.00;;;14.88;100.00
71504;BME280;59323;50.874;7.028;2023-08-30T02:32:24;100440.59;;;14.85;100.00
71504;BME280;59323;50.874;7.028;2023-08-30T02:34:51;100435.91;;;14.86;100.00
71504;BME280;59323;50.874;7.028;2023-08-30T02:37:16;100441.38;;;14.86;100.00
71504;BME280;59323;50.874;7.028;2023-08-30T02:39:42;100436.28;;;14.88;100.00
71504;BME280;59323;50.874;7.028;2023-08-30T02:42:07;100432.38;;;14.89;100.00
71504;BME280;59323;50.874;7.028;2023-08-30T02:44:32;100430.41;;;14.89;100.00
71504;BME280;59323;50.874;7.028;2023-08-30T02:46:58;100421.78;;;14.91;100.00
71504;BME280;59323;50.874;7.028;2023-08-30T02:49:23;100425.72;;;14.90;100.00
71504;BME280;59323;50.874;7.028;2023-08-30T02:51:48;100424.16;;;14.89;100.00
71504;BME280;59323;50.874;7.028;2023-08-30T02:54:14;100424.94;;;14.89;100.00
71504;BME280;59323;50.874;7.028;2023-08-30T02:56:43;100425.72;;;14.90;100.00
71504;BME280;59323;50.874;7.028;2023-08-30T02:59:10;100429.25;;;14.87;100.00
71504;BME280;59323;50.874;7.028;2023-08-30T03:01:35;100428.09;;;14.84;100.00
71504;BME280;59323;50.874;7.028;2023-08-30T03:04:01;100417.94;;;14.85;100.00
71504;BME280;59323;50.874;7.028;2023-08-30T03:06:26;100424.97;;;14.86;100.00
71504;BME280;59323;50.874;7.028;2023-08-30T03:08:53;100422.22;;;14.86;100.00
71504;BME280;59323;50.874;7.028;2023-08-30T03:11:19;100415.56;;;14.87;100.00
71504;BME280;59323;50.874;7.028;2023-08-30T03:13:44;100411.69;;;14.84;100.00
71504;BME280;59323;50.874;7.028;2023-08-30T03:16:14;100405.03;;;14.85;100.00
71504;BME280;59323;50.874;7.028;2023-08-30T03:18:40;100406.97;;;14.85;100.00
71504;BME280;59323;50.874;7.028;2023-08-30T03:21:06;100407.78;;;14.82;100.00
71504;BME280;59323;50.874;7.028;2023-08-30T03:23:32;100401.16;;;14.79;100.00
71504;BME280;59323;50.874;7.028;2023-08-30T03:25:58;100407.03;;;14.78;100.00
71504;BME280;59323;50.874;7.028;2023-08-30T03:28:24;100405.09;;;14.75;100.00
71504;BME280;59323;50.874;7.028;2023-08-30T03:30:49;100405.88;;;14.75;100.00
71504;BME280;59323;50.874;7.028;2023-08-30T03:33:14;100400.44;;;14.72;100.00
71504;BME280;59323;50.874;7.028;2023-08-30T03:35:40;100399.28;;;14.69;100.00
71504;BME280;59323;50.874;7.028;2023-08-30T03:38:05;100409.06;;;14.67;100.00
71504;BME280;59323;50.874;7.028;2023-08-30T03:40:31;100401.69;;;14.60;100.00
71504;BME280;59323;50.874;7.028;2023-08-30T03:42:56;100405.19;;;14.61;100.00
71504;BME280;59323;50.874;7.028;2023-08-30T03:45:22;100397.00;;;14.57;100.00
71504;BME280;59323;50.874;7.028;2023-08-30T03:47:47;100401.72;;;14.53;100.00
71504;BME280;59323;50.874;7.028;2023-08-30T03:50:13;100398.59;;;14.51;100.00
71504;BME280;59323;50.874;7.028;2023-08-30T03:52:38;100395.88;;;14.47;100.00
71504;BME280;59323;50.874;7.028;2023-08-30T03:55:04;100387.72;;;14.44;100.00
71504;BME280;59323;50.874;7.028;2023-08-30T03:57:29;100393.16;;;14.40;100.00
71504;BME280;59323;50.874;7.028;2023-08-30T03:59:54;100383.03;;;14.34;100.00
71504;BME280;59323;50.874;7.028;2023-08-30T04:02:20;100387.34;;;14.31;100.00
71504;BME280;59323;50.874;7.028;2023-08-30T04:04:49;100384.59;;;14.27;100.00
71504;BME280;59323;50.874;7.028;2023-08-30T04:07:15;100390.88;;;14.24;100.00
71504;BME280;59323;50.874;7.028;2023-08-30T04:09:41;100392.81;;;14.24;100.00
71504;BME280;59323;50.874;7.028;2023-08-30T04:12:06;100393.25;;;14.19;100.00
71504;BME280;59323;50.874;7.028;2023-08-30T04:14:32;100383.88;;;14.16;100.00
71504;BME280;59323;50.874;7.028;2023-08-30T04:16:57;100382.72;;;14.14;100.00
71504;BME280;59323;50.874;7.028;2023-08-30T04:19:23;100367.91;;;14.11;100.00
71504;BME280;59323;50.874;7.028;2023-08-30T04:21:48;100375.31;;;14.11;100.00
71504;BME280;59323;50.874;7.028;2023-08-30T04:24:14;100372.19;;;14.09;100.00
71504;BME280;59323;50.874;7.028;2023-08-30T04:26:40;100376.88;;;14.08;100.00
71504;BME280;59323;50.874;7.028;2023-08-30T04:29:06;100364.78;;;14.06;100.00
71504;BME280;59323;50.874;7.028;2023-08-30T04:31:31;100369.88;;;14.04;100.00
71504;BME280;59323;50.874;7.028;2023-08-30T04:33:57;100362.47;;;14.01;100.00
71504;BME280;59323;50.874;7.028;2023-08-30T04:36:22;100371.06;;;13.99;100.00
71504;BME280;59323;50.874;7.028;2023-08-30T04:38:48;100364.03;;;13.98;100.00
71504;BME280;59323;50.874;7.028;2023-08-30T04:41:13;100368.75;;;13.94;100.00
71504;BME280;59323;50.874;7.028;2023-08-30T04:43:39;100365.63;;;13.92;100.00
71504;BME280;59323;50.874;7.028;2023-08-30T04:46:04;100367.97;;;13.90;100.00
71504;BME280;59323;50.874;7.028;2023-08-30T04:48:32;100374.22;;;13.87;100.00
71504;BME280;59323;50.874;7.028;2023-08-30T04:51:04;100376.19;;;13.86;100.00
71504;BME280;59323;50.874;7.028;2023-08-30T04:53:30;100378.91;;;13.86;100.00
71504;BME280;59323;50.874;7.028;2023-08-30T04:55:55;100381.66;;;13.86;100.00
71504;BME280;59323;50.874;7.028;2023-08-30T04:58:21;100375.78;;;13.88;100.00
71504;BME280;59323;50.874;7.028;2023-08-30T05:00:46;100376.19;;;13.86;100.00
71504;BME280;59323;50.874;7.028;2023-08-30T05:03:12;100372.69;;;13.86;100.00
71504;BME280;59323;50.874;7.028;2023-08-30T05:05:37;100366.44;;;13.85;100.00
71504;BME280;59323;50.874;7.028;2023-08-30T05:08:03;100369.56;;;13.87;100.00
71504;BME280;59323;50.874;7.028;2023-08-30T05:10:29;100369.94;;;13.86;100.00
71504;BME280;59323;50.874;7.028;2023-08-30T05:12:54;100366.81;;;13.84;100.00
71504;BME280;59323;50.874;7.028;2023-08-30T05:15:20;100363.31;;;13.83;100.00
71504;BME280;59323;50.874;7.028;2023-08-30T05:17:45;100364.13;;;13.80;100.00
71504;BME280;59323;50.874;7.028;2023-08-30T05:20:11;100368.41;;;13.81;100.00
71504;BME280;59323;50.874;7.028;2023-08-30T05:22:36;100367.63;;;13.77;100.00
71504;BME280;59323;50.874;7.028;2023-08-30T05:25:02;100363.34;;;13.76;100.00
71504;BME280;59323;50.874;7.028;2023-08-30T05:27:28;100363.38;;;13.69;100.00
71504;BME280;59323;50.874;7.028;2023-08-30T05:29:53;100355.97;;;13.66;100.00
71504;BME280;59323;50.874;7.028;2023-08-30T05:32:21;100343.09;;;13.67;100.00
71504;BME280;59323;50.874;7.028;2023-08-30T05:34:46;100341.13;;;13.67;100.00
71504;BME280;59323;50.874;7.028;2023-08-30T05:37:12;100339.19;;;13.68;100.00
71504;BME280;59323;50.874;7.028;2023-08-30T05:39:37;100338.81;;;13.66;100.00
71504;BME280;59323;50.874;7.028;2023-08-30T05:42:03;100346.59;;;13.67;100.00
71504;BME280;59323;50.874;7.028;2023-08-30T05:44:28;100337.63;;;13.67;100.00
71504;BME280;59323;50.874;7.028;2023-08-30T05:46:54;100335.69;;;13.67;100.00
71504;BME280;59323;50.874;7.028;2023-08-30T05:49:19;100329.44;;;13.70;100.00
71504;BME280;59323;50.874;7.028;2023-08-30T05:51:44;100332.53;;;13.72;100.00
71504;BME280;59323;50.874;7.028;2023-08-30T05:54:10;100336.81;;;13.77;100.00
71504;BME280;59323;50.874;7.028;2023-08-30T05:56:35;100327.06;;;13.76;100.00
71504;BME280;59323;50.874;7.028;2023-08-30T05:59:01;100328.22;;;13.78;100.00
71504;BME280;59323;50.874;7.028;2023-08-30T06:01:26;100321.97;;;13.78;100.00
71504;BME280;59323;50.874;7.028;2023-08-30T06:03:51;100326.66;;;13.77;100.00
71504;BME280;59323;50.874;7.028;2023-08-30T06:06:17;100325.09;;;13.80;100.00
71504;BME280;59323;50.874;7.028;2023-08-30T06:08:42;100332.50;;;13.83;100.00
71504;BME280;59323;50.874;7.028;2023-08-30T06:11:08;100325.47;;;13.85;100.00
71504;BME280;59323;50.874;7.028;2023-08-30T06:13:33;100327.00;;;13.90;100.00
71504;BME280;59323;50.874;7.028;2023-08-30T06:15:59;100332.84;;;13.95;100.00
71504;BME280;59323;50.874;7.028;2023-08-30T06:18:29;100324.63;;;13.99;100.00
71504;BME280;59323;50.874;7.028;2023-08-30T06:20:54;100328.47;;;14.09;100.00
71504;BME280;59323;50.874;7.028;2023-08-30T06:23:20;100324.16;;;14.15;100.00
71504;BME280;59323;50.874;7.028;2023-08-30T06:25:53;100326.06;;;14.21;100.00
71504;BME280;59323;50.874;7.028;2023-08-30T06:28:18;100320.16;;;14.30;100.00
71504;BME280;59323;50.874;7.028;2023-08-30T06:30:44;100323.63;;;14.41;100.00
71504;BME280;59323;50.874;7.028;2023-08-30T06:33:09;100328.31;;;14.48;100.00
71504;BME280;59323;50.874;7.028;2023-08-30T06:35:37;100330.19;;;14.58;100.00
71504;BME280;59323;50.874;7.028;2023-08-30T06:38:04;100327.38;;;14.69;100.00
71504;BME280;59323;50.874;7.028;2023-08-30T06:40:30;100316.00;;;14.77;100.00
71504;BME280;59323;50.874;7.028;2023-08-30T06:50:05;100304.94;;;15.33;100.00
71504;BME280;59323;50.874;7.028;2023-08-30T06:52:30;100303.63;;;15.48;100.00
71504;BME280;59323;50.874;7.028;2023-08-30T06:54:55;100294.09;;;15.63;100.00
71504;BME280;59323;50.874;7.028;2023-08-30T06:57:21;100302.44;;;15.87;100.00
71504;BME280;59323;50.874;7.028;2023-08-30T06:59:47;100295.22;;;16.00;98.88
71504;BME280;59323;50.874;7.028;2023-08-30T07:02:12;100303.69;;;16.09;97.80
71504;BME280;59323;50.874;7.028;2023-08-30T07:04:39;100298.16;;;16.12;96.34
71504;BME280;59323;50.874;7.028;2023-08-30T07:07:05;100294.09;;;16.24;96.62
71504;BME280;59323;50.874;7.028;2023-08-30T07:09:30;100310.84;;;16.33;95.79
71504;BME280;59323;50.874;7.028;2023-08-30T07:11:57;100298.22;;;16.39;95.32
71504;BME280;59323;50.874;7.028;2023-08-30T07:14:23;100289.66;;;16.61;95.67
71504;BME280;59323;50.874;7.028;2023-08-30T07:16:48;100285.88;;;16.78;94.25
71504;BME280;59323;50.874;7.028;2023-08-30T07:19:15;100285.59;;;16.96;92.63
71504;BME280;59323;50.874;7.028;2023-08-30T07:21:41;100289.28;;;17.09;90.77
71504;BME280;59323;50.874;7.028;2023-08-30T07:24:07;100289.03;;;17.23;89.10
71504;BME280;59323;50.874;7.028;2023-08-30T07:26:33;100282.63;;;17.50;89.87
71504;BME280;59323;50.874;7.028;2023-08-30T07:28:58;100285.97;;;17.81;88.51
71504;BME280;59323;50.874;7.028;2023-08-30T07:31:23;100277.28;;;18.02;84.91
71504;BME280;59323;50.874;7.028;2023-08-30T07:33:49;100276.06;;;18.23;84.95
71504;BME280;59323;50.874;7.028;2023-08-30T07:36:14;100281.50;;;18.43;84.21
71504;BME280;59323;50.874;7.028;2023-08-30T07:38:40;100284.03;;;18.69;83.97
71504;BME280;59323;50.874;7.028;2023-08-30T07:41:05;100287.28;;;18.97;81.94
71504;BME280;59323;50.874;7.028;2023-08-30T07:43:30;100278.25;;;18.96;78.66
71504;BME280;59323;50.874;7.028;2023-08-30T07:53:18;100274.34;;;19.55;75.82
71504;BME280;59323;50.874;7.028;2023-08-30T07:55:50;100280.09;;;19.61;76.58
71504;BME280;59323;50.874;7.028;2023-08-30T07:58:19;100272.41;;;19.69;76.00
71504;BME280;59323;50.874;7.028;2023-08-30T08:00:52;100276.19;;;19.87;73.63
71504;BME280;59323;50.874;7.028;2023-08-30T08:03:17;100282.59;;;19.97;74.41
71504;BME280;59323;50.874;7.028;2023-08-30T08:06:01;100274.00;;;20.08;72.58
71504;BME280;59323;50.874;7.028;2023-08-30T08:08:29;100280.44;;;20.30;71.01
71504;BME280;59323;50.874;7.028;2023-08-30T08:10:55;100275.81;;;20.52;69.81
71504;BME280;59323;50.874;7.028;2023-08-30T08:13:31;100277.66;;;20.81;68.88
71504;BME280;59323;50.874;7.028;2023-08-30T08:15:57;100267.69;;;20.83;64.06
71504;BME280;59323;50.874;7.028;2023-08-30T08:18:23;100267.34;;;20.94;66.54
71504;BME280;59323;50.874;7.028;2023-08-30T08:20:48;100270.75;;;20.98;65.39
71504;BME280;59323;50.874;7.028;2023-08-30T08:23:13;100266.31;;;21.01;63.42
71504;BME280;59323;50.874;7.028;2023-08-30T08:25:39;100254.44;;;21.13;63.92
71504;BME280;59323;50.874;7.028;2023-08-30T08:28:05;100257.19;;;21.26;63.85
71504;BME280;59323;50.874;7.028;2023-08-30T08:30:30;100255.00;;;21.42;63.03
71504;BME280;59323;50.874;7.028;2023-08-30T08:35:25;100242.88;;;21.62;60.31
71504;BME280;59323;50.874;7.028;2023-08-30T08:37:51;100242.00;;;21.74;60.18
71504;BME280;59323;50.874;7.028;2023-08-30T08:40:16;100239.97;;;21.96;60.27
71504;BME280;59323;50.874;7.028;2023-08-30T08:42:42;100242.66;;;22.09;57.98
71504;BME280;59323;50.874;7.028;2023-08-30T08:45:09;100244.78;;;22.05;57.42
71504;BME280;59323;50.874;7.028;2023-08-30T08:47:38;100237.91;;;22.09;58.22
71504;BME280;59323;50.874;7.028;2023-08-30T08:50:04;100237.31;;;22.14;58.06
71504;BME280;59323;50.874;7.028;2023-08-30T08:52:30;100237.72;;;22.04;57.53
71504;BME280;59323;50.874;7.028;2023-08-30T08:54:56;100230.28;;;22.01;56.68
71504;BME280;59323;50.874;7.028;2023-08-30T08:57:22;100239.25;;;22.05;58.44
71504;BME280;59323;50.874;7.028;2023-08-30T08:59:48;100249.88;;;22.06;56.77
71504;BME280;59323;50.874;7.028;2023-08-30T09:02:15;100246.53;;;22.11;58.46
71504;BME280;59323;50.874;7.028;2023-08-30T09:04:41;100241.44;;;22.10;57.37
71504;BME280;59323;50.874;7.028;2023-08-30T09:07:06;100245.81;;;22.20;55.59
71504;BME280;59323;50.874;7.028;2023-08-30T09:09:33;100241.19;;;22.17;55.69
71504;BME280;59323;50.874;7.028;2023-08-30T09:11:58;100228.50;;;22.07;55.20
71504;BME280;59323;50.874;7.028;2023-08-30T09:14:23;100231.13;;;22.10;55.59
71504;BME280;59323;50.874;7.028;2023-08-30T09:16:57;100239.25;;;22.05;55.01
71504;BME280;59323;50.874;7.028;2023-08-30T09:19:26;100233.19;;;21.97;55.52
71504;BME280;59323;50.874;7.028;2023-08-30T09:21:57;100237.03;;;21.91;55.58
71504;BME280;59323;50.874;7.028;2023-08-30T09:24:23;100227.13;;;21.80;56.35
71504;BME280;59323;50.874;7.028;2023-08-30T09:26:50;100219.34;;;21.57;56.32
71504;BME280;59323;50.874;7.028;2023-08-30T09:29:18;100227.69;;;21.44;56.56
71504;BME280;59323;50.874;7.028;2023-08-30T09:31:43;100230.97;;;21.30;57.53
71504;BME280;59323;50.874;7.028;2023-08-30T09:34:12;100227.59;;;21.13;57.76
71504;BME280;59323;50.874;7.028;2023-08-30T09:36:39;100228.22;;;20.96;59.05
71504;BME280;59323;50.874;7.028;2023-08-30T09:39:09;100210.56;;;20.80;58.81
71504;BME280;59323;50.874;7.028;2023-08-30T09:41:36;100212.81;;;20.73;60.15
71504;BME280;59323;50.874;7.028;2023-08-30T09:44:18;100219.56;;;20.59;58.73
71504;BME280;59323;50.874;7.028;2023-08-30T09:49:10;100197.53;;;20.34;61.22
71504;BME280;59323;50.874;7.028;2023-08-30T09:51:38;100203.03;;;20.34;62.27
71504;BME280;59323;50.874;7.028;2023-08-30T09:54:19;100192.78;;;20.21;63.11
71504;BME280;59323;50.874;7.028;2023-08-30T09:56:50;100192.13;;;20.17;62.48
71504;BME280;59323;50.874;7.028;2023-08-30T09:59:19;100206.38;;;20.16;63.16
71504;BME280;59323;50.874;7.028;2023-08-30T10:01:47;100201.06;;;20.09;63.99
71504;BME280;59323;50.874;7.028;2023-08-30T10:04:18;100207.78;;;19.95;66.69
71504;BME280;59323;50.874;7.028;2023-08-30T10:06:45;100210.00;;;19.87;66.98
71504;BME280;59323;50.874;7.028;2023-08-30T10:09:10;100207.78;;;19.82;67.08
71504;BME280;59323;50.874;7.028;2023-08-30T10:11:37;100211.31;;;19.70;68.59
71504;BME280;59323;50.874;7.028;2023-08-30T10:14:03;100207.00;;;19.56;69.08
71504;BME280;59323;50.874;7.028;2023-08-30T10:16:35;100213.72;;;19.39;71.13
71504;BME280;59323;50.874;7.028;2023-08-30T10:19:09;100198.72;;;19.27;73.37
71504;BME280;59323;50.874;7.028;2023-08-30T10:21:36;100203.22;;;19.21;74.21
71504;BME280;59323;50.874;7.028;2023-08-30T10:24:02;100192.94;;;19.09;74.10
71504;BME280;59323;50.874;7.028;2023-08-30T10:26:29;100196.66;;;19.03;75.30
71504;BME280;59323;50.874;7.028;2023-08-30T10:28:56;100201.50;;;18.98;76.49
71504;BME280;59323;50.874;7.028;2023-08-30T10:31:23;100201.16;;;18.96;75.71
71504;BME280;59323;50.874;7.028;2023-08-30T10:33:57;100197.38;;;18.90;77.00
71504;BME280;59323;50.874;7.028;2023-08-30T10:36:23;100191.25;;;18.83;77.32
71504;BME280;59323;50.874;7.028;2023-08-30T10:38:50;100175.47;;;18.71;77.96
71504;BME280;59323;50.874;7.028;2023-08-30T10:41:21;100184.16;;;18.69;78.31
71504;BME280;59323;50.874;7.028;2023-08-30T10:43:50;100188.88;;;18.68;78.56
71504;BME280;59323;50.874;7.028;2023-08-30T10:46:17;100187.69;;;18.69;79.76
71504;BME280;59323;50.874;7.028;2023-08-30T10:48:42;100180.38;;;18.63;78.66
71504;BME280;59323;50.874;7.028;2023-08-30T10:51:37;100184.06;;;18.56;78.54
71504;BME280;59323;50.874;7.028;2023-08-30T10:54:16;100176.00;;;18.49;78.46
71504;BME280;59323;50.874;7.028;2023-08-30T10:56:54;100180.72;;;18.49;79.33
71504;BME280;59323;50.874;7.028;2023-08-30T10:59:23;100161.28;;;18.40;79.65
71504;BME280;59323;50.874;7.028;2023-08-30T11:01:49;100172.38;;;18.52;78.04
71504;BME280;59323;50.874;7.028;2023-08-30T11:04:17;100167.88;;;18.58;79.48
71504;BME280;59323;50.874;7.028;2023-08-30T11:06:47;100162.66;;;18.64;79.40
71504;BME280;59323;50.874;7.028;2023-08-30T11:09:18;100147.94;;;18.71;78.48
71504;BME280;59323;50.874;7.028;2023-08-30T11:11:44;100147.50;;;18.72;78.90
71504;BME280;59323;50.874;7.028;2023-08-30T11:14:10;100139.91;;;18.76;80.78
71504;BME280;59323;50.874;7.028;2023-08-30T11:16:36;100145.31;;;18.80;79.84
71504;BME280;59323;50.874;7.028;2023-08-30T11:19:03;100150.41;;;18.81;78.98
71504;BME280;59323;50.874;7.028;2023-08-30T11:21:30;100148.53;;;18.78;79.29
71504;BME280;59323;50.874;7.028;2023-08-30T11:23:56;100165.91;;;18.75;79.52
71504;BME280;59323;50.874;7.028;2023-08-30T11:26:21;100196.28;;;18.88;75.51
71504;BME280;59323;50.874;7.028;2023-08-30T11:28:47;100208.59;;;18.67;81.76
71504;BME280;59323;50.874;7.028;2023-08-30T11:31:32;100216.22;;;18.27;88.05
71504;BME280;59323;50.874;7.028;2023-08-30T11:37:47;100225.63;;;17.54;94.65
71504;BME280;59323;50.874;7.028;2023-08-30T11:40:13;100219.88;;;17.28;96.60
71504;BME280;59323;50.874;7.028;2023-08-30T11:42:42;100229.31;;;17.27;97.57
71504;BME280;59323;50.874;7.028;2023-08-30T11:45:11;100208.47;;;17.10;98.46
71504;BME280;59323;50.874;7.028;2023-08-30T11:47:39;100216.63;;;17.14;99.22
71504;BME280;59323;50.874;7.028;2023-08-30T11:50:14;100217.00;;;17.16;98.84
71504;BME280;59323;50.874;7.028;2023-08-30T11:52:47;100207.56;;;17.17;99.68
71504;BME280;59323;50.874;7.028;2023-08-30T11:55:14;100213.88;;;17.14;99.77
71504;BME280;59323;50.874;7.028;2023-08-30T11:57:43;100221.34;;;17.13;100.00
71504;BME280;59323;50.874;7.028;2023-08-30T12:00:12;100214.16;;;16.99;100.00
71504;BME280;59323;50.874;7.028;2023-08-30T12:03:01;100213.75;;;17.01;100.00
71504;BME280;59323;50.874;7.028;2023-08-30T12:12:29;100213.81;;;17.17;100.00
71504;BME280;59323;50.874;7.028;2023-08-30T12:15:18;100194.03;;;17.06;100.00
71504;BME280;59323;50.874;7.028;2023-08-30T12:17:47;100195.09;;;17.12;98.48
71504;BME280;59323;50.874;7.028;2023-08-30T12:20:33;100208.41;;;17.14;100.00
71504;BME280;59323;50.874;7.028;2023-08-30T12:23:24;100197.13;;;17.08;100.00
71504;BME280;59323;50.874;7.028;2023-08-30T12:26:15;100192.28;;;16.96;100.00
71504;BME280;59323;50.874;7.028;2023-08-30T12:28:42;100186.25;;;16.81;100.00
71504;BME280;59323;50.874;7.028;2023-08-30T12:31:39;100181.72;;;16.71;100.00
71504;BME280;59323;50.874;7.028;2023-08-30T12:34:17;100189.47;;;16.76;100.00
71504;BME280;59323;50.874;7.028;2023-08-30T12:36:45;100201.94;;;16.80;100.00
71504;BME280;59323;50.874;7.028;2023-08-30T12:39:11;100204.31;;;16.78;100.00
71504;BME280;59323;50.874;7.028;2023-08-30T12:41:36;100195.84;;;16.69;100.00
71504;BME280;59323;50.874;7.028;2023-08-30T12:44:02;100195.19;;;16.62;100.00
71504;BME280;59323;50.874;7.028;2023-08-30T12:46:29;100202.63;;;16.61;100.00
71504;BME280;59323;50.874;7.028;2023-08-30T12:48:58;100223.38;;;16.62;100.00
71504;BME280;59323;50.874;7.028;2023-08-30T12:51:26;100204.72;;;16.54;100.00
71504;BME280;59323;50.874;7.028;2023-08-30T12:53:57;100216.88;;;16.53;100.00
71504;BME280;59323;50.874;7.028;2023-08-30T12:56:30;100210.88;;;16.38;100.00
71504;BME280;59323;50.874;7.028;2023-08-30T12:58:56;100205.09;;;16.32;100.00
71504;BME280;59323;50.874;7.028;2023-08-30T13:01:21;100207.53;;;16.23;100.00
71504;BME280;59323;50.874;7.028;2023-08-30T13:03:50;100208.38;;;16.20;100.00
71504;BME280;59323;50.874;7.028;2023-08-30T13:06:18;100208.44;;;16.16;100.00
71504;BME280;59323;50.874;7.028;2023-08-30T13:08:43;100201.16;;;16.06;100.00
71504;BME280;59323;50.874;7.028;2023-08-30T13:11:12;100206.56;;;16.10;100.00
71504;BME280;59323;50.874;7.028;2023-08-30T13:13:40;100204.31;;;16.05;100.00
71504;BME280;59323;50.874;7.028;2023-08-30T13:16:06;100189.09;;;16.00;100.00
71504;BME280;59323;50.874;7.028;2023-08-30T13:18:34;100205.38;;;16.11;100.00